Time;durP1;ratioP1;P1;durP2;ratioP2;P2;SDS_P1;SDS_P2;PMS_P1;PMS_P2;Temp;Humidity;BMP_temperature;BMP_pressure;BME280_temperature;BME280_humidity;BME280_pressure;Samples;Min_cycle;Max_cycle;Signal;HPM_P1;HPM_P2
2022/04/13 00:01:06;;;;;;;9.00;7.45;;;14.10;99.90;;;;;;5165834;27;20038;-67
2022/04/13 00:03:32;;;;;;;10.10;7.82;;;13.80;99.90;;;;;;5146657;27;20514;-67
2022/04/13 00:05:58;;;;;;;9.25;7.82;;;13.60;99.90;;;;;;5147239;27;20085;-67
2022/04/13 00:08:23;;;;;;;11.07;7.47;;;13.50;99.90;;;;;;5162779;27;20171;-67
2022/04/13 00:10:49;;;;;;;10.25;7.45;;;13.50;99.90;;;;;;5164796;27;20054;-67
2022/04/13 00:13:15;;;;;;;9.73;8.00;;;13.40;99.90;;;;;;5146625;27;20039;-67
2022/04/13 00:15:41;;;;;;;10.18;7.65;;;13.30;99.90;;;;;;5162962;27;20435;-67
2022/04/13 00:18:08;;;;;;;9.23;7.20;;;13.20;99.90;;;;;;5147781;27;20046;-68
2022/04/13 00:20:35;;;;;;;9.63;8.18;;;13.10;99.90;;;;;;5164883;27;20047;-67
2022/04/13 00:23:01;;;;;;;8.45;7.47;;;13.00;99.90;;;;;;5163898;27;20481;-68
2022/04/13 00:25:28;;;;;;;11.63;8.35;;;12.80;99.90;;;;;;5164752;27;20054;-67
2022/04/13 00:27:55;;;;;;;10.75;7.90;;;12.80;99.90;;;;;;5145920;27;20053;-67
2022/04/13 00:30:20;;;;;;;10.60;7.30;;;12.70;99.90;;;;;;5147709;27;20053;-67
2022/04/13 00:32:46;;;;;;;10.52;7.97;;;12.70;99.90;;;;;;5145795;27;20042;-67
2022/04/13 00:35:12;;;;;;;12.40;7.65;;;12.60;99.90;;;;;;5146349;27;20053;-67
2022/04/13 00:37:38;;;;;;;8.15;7.28;;;12.50;99.90;;;;;;5146872;27;20050;-67
2022/04/13 00:40:06;;;;;;;9.38;7.68;;;12.50;99.90;;;;;;5147485;27;20118;-67
2022/04/13 00:42:31;;;;;;;10.93;7.65;;;12.40;99.90;;;;;;5150457;27;20057;-67
2022/04/13 00:44:57;;;;;;;9.80;7.90;;;12.40;99.90;;;;;;5151638;27;20086;-67
2022/04/13 00:47:25;;;;;;;10.73;8.70;;;12.40;99.90;;;;;;5149722;27;20111;-67
2022/04/13 00:49:52;;;;;;;9.57;8.15;;;12.30;99.90;;;;;;5168538;27;20043;-67
2022/04/13 00:52:21;;;;;;;10.60;8.27;;;12.50;99.90;;;;;;5150367;27;20046;-67
2022/04/13 00:54:48;;;;;;;10.60;8.75;;;12.40;99.90;;;;;;5134427;27;20039;-67
2022/04/13 00:57:16;;;;;;;10.23;7.53;;;12.50;99.90;;;;;;5150496;27;20046;-67
2022/04/13 00:59:44;;;;;;;8.55;7.72;;;12.40;99.90;;;;;;5132345;27;20075;-67
2022/04/13 01:02:12;;;;;;;10.20;8.23;;;12.50;99.90;;;;;;5169452;27;20039;-67
2022/04/13 01:04:38;;;;;;;12.25;8.13;;;12.60;99.90;;;;;;5150102;27;20075;-67
2022/04/13 01:07:09;;;;;;;11.70;7.97;;;12.60;99.90;;;;;;5149096;27;20050;-67
2022/04/13 01:09:36;;;;;;;10.18;7.80;;;12.50;99.90;;;;;;5167380;27;20061;-67
2022/04/13 01:12:02;;;;;;;9.75;8.05;;;12.60;99.90;;;;;;5149411;27;20055;-67
2022/04/13 01:14:29;;;;;;;9.50;8.30;;;12.30;99.90;;;;;;5148636;27;20132;-67
2022/04/13 01:16:55;;;;;;;9.95;8.90;;;12.20;99.90;;;;;;5127647;27;20047;-67
2022/04/13 01:19:21;;;;;;;13.02;8.20;;;12.10;99.90;;;;;;5149352;27;20066;-67
2022/04/13 01:21:52;;;;;;;10.18;7.97;;;12.00;99.90;;;;;;5148979;27;20050;-67
2022/04/13 01:24:19;;;;;;;10.82;8.13;;;12.00;99.90;;;;;;5148536;27;20058;-67
2022/04/13 01:26:46;;;;;;;10.93;8.23;;;12.20;99.90;;;;;;5149294;27;20039;-67
2022/04/13 01:29:12;;;;;;;11.55;8.98;;;12.30;99.90;;;;;;5167242;27;20057;-67
2022/04/13 01:31:39;;;;;;;11.23;8.70;;;12.30;99.90;;;;;;5149191;27;20050;-67
2022/04/13 01:34:05;;;;;;;12.18;9.75;;;12.40;99.90;;;;;;5149338;27;20042;-67
2022/04/13 01:36:35;;;;;;;12.35;8.52;;;12.40;99.90;;;;;;5148856;27;20048;-67
2022/04/13 01:39:02;;;;;;;;;;;12.50;99.90;;;;;;5167882;27;20050;-67
2022/04/13 01:41:28;;;;;;;10.95;8.95;;;12.40;99.90;;;;;;5145515;27;19926;-67
2022/04/13 01:43:53;;;;;;;11.48;8.73;;;12.40;99.90;;;;;;5146714;27;20055;-67
2022/04/13 01:46:19;;;;;;;14.38;9.63;;;12.50;99.90;;;;;;5116379;28;20058;-67
2022/04/13 01:48:45;;;;;;;14.43;9.38;;;12.60;99.90;;;;;;5125216;28;20075;-67
2022/04/13 01:51:10;;;;;;;12.57;9.77;;;12.60;99.90;;;;;;5114998;27;20099;-67
2022/04/13 01:53:36;;;;;;;11.68;9.88;;;12.70;99.90;;;;;;5145368;27;20131;-67
2022/04/13 01:56:02;;;;;;;14.02;10.07;;;12.70;99.90;;;;;;5128624;27;20043;-67
2022/04/13 01:58:28;;;;;;;14.32;9.65;;;12.60;99.90;;;;;;5128093;27;20051;-67
2022/04/13 02:00:54;;;;;;;16.25;9.48;;;12.70;99.90;;;;;;5147069;27;20065;-67
2022/04/13 02:03:21;;;;;;;12.63;9.40;;;12.50;99.90;;;;;;5111487;27;20082;-67
2022/04/13 02:05:48;;;;;;;10.73;9.27;;;12.50;99.90;;;;;;5127904;27;20047;-67
2022/04/13 02:08:14;;;;;;;14.23;9.45;;;12.30;99.90;;;;;;5126619;27;20078;-67
2022/04/13 02:10:40;;;;;;;15.48;9.55;;;12.30;99.90;;;;;;5110864;27;20126;-67
2022/04/13 02:13:06;;;;;;;13.07;10.10;;;12.30;99.90;;;;;;5146349;27;20429;-67
2022/04/13 02:15:31;;;;;;;16.50;10.50;;;12.30;99.90;;;;;;5127764;27;20043;-67
2022/04/13 02:17:57;;;;;;;14.52;9.23;;;12.10;99.90;;;;;;5110312;27;20046;-67
2022/04/13 02:20:23;;;;;;;11.02;9.63;;;12.00;99.90;;;;;;5125514;27;20046;-67
2022/04/13 02:22:49;;;;;;;11.77;10.57;;;11.90;99.90;;;;;;5122739;27;20126;-67
2022/04/13 02:25:14;;;;;;;14.50;9.95;;;11.80;99.90;;;;;;5144737;27;20035;-67
2022/04/13 02:27:42;;;;;;;12.30;9.98;;;11.80;99.90;;;;;;5128020;27;20121;-67
2022/04/13 02:30:08;;;;;;;13.05;10.07;;;11.80;99.90;;;;;;5128671;27;20054;-67
2022/04/13 02:32:43;;;;;;;16.30;10.45;;;11.80;99.90;;;;;;5106630;28;20040;-67
2022/04/13 02:35:10;;;;;;;13.40;10.20;;;11.90;99.90;;;;;;5127490;27;20058;-67
2022/04/13 02:37:35;;;;;;;13.75;10.48;;;11.80;99.90;;;;;;5127925;27;20031;-67
2022/04/13 02:40:02;;;;;;;14.65;10.73;;;11.80;99.90;;;;;;5127962;27;20424;-67
2022/04/13 02:42:32;;;;;;;13.40;10.20;;;11.80;99.90;;;;;;5128650;27;20047;-67
2022/04/13 02:44:59;;;;;;;14.13;10.48;;;11.80;99.90;;;;;;5131097;27;20057;-67
2022/04/13 02:47:25;;;;;;;11.90;10.43;;;11.80;99.90;;;;;;5153729;27;20074;-67
2022/04/13 02:49:51;;;;;;;13.60;10.35;;;11.80;99.90;;;;;;5144391;27;20047;-67
2022/04/13 02:52:16;;;;;;;12.48;10.25;;;11.70;99.90;;;;;;5144821;27;20046;-67
2022/04/13 02:54:42;;;;;;;11.70;9.13;;;11.70;99.90;;;;;;5138135;27;20047;-67
2022/04/13 02:57:08;;;;;;;15.50;11.95;;;11.40;99.90;;;;;;5123436;27;20044;-67
2022/04/13 02:59:33;;;;;;;12.82;10.63;;;11.30;99.90;;;;;;5144743;27;20043;-67
2022/04/13 03:01:59;;;;;;;16.15;11.27;;;11.30;99.90;;;;;;5100431;27;20048;-67
2022/04/13 03:04:25;;;;;;;15.50;11.13;;;11.40;99.90;;;;;;5143599;27;20064;-67
2022/04/13 03:06:50;;;;;;;17.45;12.02;;;11.40;99.90;;;;;;5144956;27;20517;-67
2022/04/13 03:09:16;;;;;;;18.10;11.05;;;11.40;99.90;;;;;;5144392;27;20039;-67
2022/04/13 03:11:42;;;;;;;15.88;11.35;;;11.40;99.90;;;;;;5151373;27;20046;-67
2022/04/13 03:14:08;;;;;;;13.07;10.48;;;11.50;99.90;;;;;;5127315;27;20586;-67
2022/04/13 03:16:33;;;;;;;15.52;10.95;;;11.50;99.90;;;;;;5124604;27;20057;-67
2022/04/13 03:19:00;;;;;;;16.88;11.73;;;11.60;99.90;;;;;;5114490;28;20056;-67
2022/04/13 03:21:27;;;;;;;13.98;11.82;;;11.60;99.90;;;;;;5143009;27;20055;-67
2022/04/13 03:23:53;;;;;;;16.40;11.57;;;11.60;99.90;;;;;;5144193;27;20043;-67
2022/04/13 03:26:18;;;;;;;16.20;11.68;;;11.50;99.90;;;;;;5143270;27;20061;-67
2022/04/13 03:28:44;;;;;;;16.83;12.85;;;11.40;99.90;;;;;;5142862;27;20034;-67
2022/04/13 03:31:10;;;;;;;14.90;11.10;;;11.70;99.90;;;;;;5141304;27;20039;-67
2022/04/13 03:33:35;;;;;;;14.38;10.80;;;11.40;99.90;;;;;;5132756;27;20411;-67
2022/04/13 03:36:01;;;;;;;15.20;11.15;;;11.00;99.90;;;;;;5141938;27;20054;-67
2022/04/13 03:38:27;;;;;;;11.73;10.13;;;10.80;99.90;;;;;;5144124;27;20103;-67
2022/04/13 03:40:52;;;;;;;11.90;10.63;;;10.40;99.90;;;;;;5141968;27;20054;-67
2022/04/13 03:43:18;;;;;;;13.57;11.20;;;10.40;99.90;;;;;;5139647;27;20053;-67
2022/04/13 03:45:44;;;;;;;19.48;11.88;;;10.30;99.90;;;;;;5143766;28;20059;-67
2022/04/13 03:48:09;;;;;;;17.15;11.88;;;10.30;99.90;;;;;;5145004;28;20043;-67
2022/04/13 03:50:35;;;;;;;18.05;11.68;;;10.30;99.90;;;;;;5145389;28;20043;-67
2022/04/13 03:53:01;;;;;;;18.00;13.00;;;10.50;99.90;;;;;;5143675;28;20402;-67
2022/04/13 03:55:26;;;;;;;18.05;12.65;;;10.60;99.90;;;;;;5144528;28;20047;-67
2022/04/13 03:57:52;;;;;;;17.58;13.75;;;10.60;99.90;;;;;;5143198;28;20071;-67
2022/04/13 04:00:18;;;;;;;19.40;13.40;;;10.80;99.90;;;;;;5143807;28;20079;-67
2022/04/13 04:02:44;;;;;;;18.88;13.95;;;10.90;99.90;;;;;;5162935;27;20371;-67
2022/04/13 04:05:11;;;;;;;19.20;13.38;;;11.10;99.90;;;;;;5145121;27;20054;-67
2022/04/13 04:07:37;;;;;;;18.25;13.52;;;11.10;99.90;;;;;;5125357;28;20035;-67
2022/04/13 04:10:07;;;;;;;18.65;14.13;;;11.20;99.90;;;;;;5143083;28;20039;-67
2022/04/13 04:12:41;;;;;;;22.85;14.85;;;11.20;99.90;;;;;;5144066;28;20058;-67
2022/04/13 04:15:09;;;;;;;20.23;13.75;;;11.20;99.90;;;;;;5165684;27;20046;-67
2022/04/13 04:17:36;;;;;;;17.60;13.18;;;11.30;99.90;;;;;;5148658;27;20080;-67
2022/04/13 04:20:02;;;;;;;20.95;15.07;;;11.20;99.90;;;;;;5173370;27;20078;-67
2022/04/13 04:22:29;;;;;;;18.70;14.35;;;11.30;99.90;;;;;;5148130;27;20054;-67
2022/04/13 04:24:54;;;;;;;21.67;14.98;;;11.30;99.90;;;;;;5148418;27;20127;-67
2022/04/13 04:27:20;;;;;;;21.88;14.07;;;11.40;99.90;;;;;;5147532;27;20070;-67
2022/04/13 04:29:46;;;;;;;20.90;15.82;;;11.50;99.90;;;;;;5174572;27;20039;-67
2022/04/13 04:32:12;;;;;;;21.20;15.02;;;11.60;99.90;;;;;;5148174;27;20403;-67
2022/04/13 04:34:38;;;;;;;22.48;14.75;;;11.60;99.90;;;;;;5147360;27;20035;-67
2022/04/13 04:37:04;;;;;;;20.80;15.00;;;11.70;99.90;;;;;;5148024;27;20039;-67
2022/04/13 04:39:30;;;;;;;20.83;14.23;;;11.80;99.90;;;;;;5170012;27;20051;-67
2022/04/13 04:41:55;;;;;;;25.73;14.70;;;11.70;99.90;;;;;;5147579;27;20502;-67
2022/04/13 04:44:21;;;;;;;24.55;14.88;;;11.70;99.90;;;;;;5150062;27;20047;-67
2022/04/13 04:46:47;;;;;;;22.92;14.88;;;11.70;99.90;;;;;;5147128;27;20571;-67
2022/04/13 04:49:13;;;;;;;23.35;14.30;;;11.70;99.90;;;;;;5147366;27;20054;-67
2022/04/13 04:51:38;;;;;;;20.38;14.32;;;11.70;99.90;;;;;;5146480;27;20090;-67
2022/04/13 04:54:04;;;;;;;20.30;14.82;;;11.80;99.90;;;;;;5147670;27;20459;-67
2022/04/13 04:56:31;;;;;;;19.85;14.15;;;11.80;99.90;;;;;;5148974;27;20080;-67
2022/04/13 04:58:57;;;;;;;20.38;15.57;;;11.80;99.90;;;;;;5147613;27;20039;-67
2022/04/13 05:01:23;;;;;;;21.52;15.82;;;11.80;99.90;;;;;;5146742;27;20092;-67
2022/04/13 05:03:49;;;;;;;22.35;14.98;;;12.00;99.90;;;;;;5146669;27;20046;-67
2022/04/13 05:06:22;;;;;;;24.20;16.00;;;11.90;99.90;;;;;;5146243;27;20043;-67
2022/04/13 05:08:51;;;;;;;20.52;14.30;;;11.90;99.90;;;;;;5129384;27;20063;-67
2022/04/13 05:11:18;;;;;;;23.80;20.27;;;11.90;99.90;;;;;;5102687;27;20367;-66
2022/04/13 05:13:47;;;;;;;21.27;14.63;;;11.90;99.90;;;;;;5145121;27;20046;-66
2022/04/13 05:16:14;;;;;;;22.13;15.07;;;11.80;99.90;;;;;;5145138;27;20039;-65
2022/04/13 05:18:40;;;;;;;17.17;13.70;;;11.70;99.90;;;;;;5145027;27;20047;-66
2022/04/13 05:21:06;;;;;;;19.90;15.77;;;11.70;99.90;;;;;;5120803;27;20139;-67
2022/04/13 05:23:32;;;;;;;19.80;14.80;;;11.40;99.90;;;;;;5118092;27;20047;-66
2022/04/13 05:25:57;;;;;;;18.55;14.68;;;11.40;99.90;;;;;;5138849;27;20050;-65
2022/04/13 05:28:23;;;;;;;19.60;15.18;;;11.30;99.90;;;;;;5084340;27;20465;-66
2022/04/13 05:30:49;;;;;;;20.10;15.65;;;11.40;99.90;;;;;;5117146;27;20548;-66
2022/04/13 05:33:14;;;;;;;21.55;14.93;;;11.40;99.90;;;;;;5130469;27;20092;-65
2022/04/13 05:35:40;;;;;;;22.88;15.80;;;11.40;99.90;;;;;;5138052;27;20039;-66
2022/04/13 05:38:06;;;;;;;21.90;16.50;;;11.40;99.90;;;;;;5132495;27;20389;-65
2022/04/13 05:40:33;;;;;;;23.25;16.63;;;11.40;99.90;;;;;;5120847;27;20049;-65
2022/04/13 05:42:59;;;;;;;21.63;17.45;;;11.40;99.90;;;;;;5128369;27;20138;-66
2022/04/13 05:45:25;;;;;;;18.77;15.20;;;11.50;99.90;;;;;;5137037;27;20034;-65
2022/04/13 05:47:51;;;;;;;21.58;16.67;;;11.50;99.90;;;;;;5146186;27;20067;-65
2022/04/13 05:50:16;;;;;;;24.13;16.88;;;11.50;99.90;;;;;;5117733;27;20122;-65
2022/04/13 05:52:44;;;;;;;21.05;16.17;;;11.60;99.90;;;;;;5131485;27;20051;-65
2022/04/13 05:55:10;;;;;;;22.38;16.17;;;11.70;99.90;;;;;;5112666;27;20070;-66
2022/04/13 05:57:36;;;;;;;24.52;17.33;;;11.60;99.90;;;;;;5137493;27;20055;-65
2022/04/13 06:00:04;;;;;;;24.23;15.82;;;11.90;99.90;;;;;;5132890;27;20051;-65
2022/04/13 06:02:30;;;;;;;29.13;18.52;;;12.00;99.90;;;;;;5131938;27;20043;-65
2022/04/13 06:04:55;;;;;;;25.88;18.00;;;12.00;99.90;;;;;;5108235;27;20049;-65
2022/04/13 06:07:21;;;;;;;24.08;18.65;;;12.00;99.90;;;;;;5109383;27;20096;-65
2022/04/13 06:09:47;;;;;;;22.75;17.73;;;11.90;99.90;;;;;;5136826;27;20047;-65
2022/04/13 06:12:20;;;;;;;24.55;18.38;;;12.00;99.90;;;;;;5125910;27;20051;-66
2022/04/13 06:14:46;;;;;;;27.08;18.67;;;12.20;99.90;;;;;;5119569;27;20133;-65
2022/04/13 06:17:11;;;;;;;25.05;18.45;;;12.20;99.90;;;;;;5124181;27;20074;-65
2022/04/13 06:19:37;;;;;;;24.55;18.17;;;12.00;99.90;;;;;;5120330;27;20061;-66
2022/04/13 06:22:03;;;;;;;24.88;17.50;;;12.10;99.90;;;;;;5129729;27;20049;-65
2022/04/13 06:24:28;;;;;;;25.13;18.17;;;12.10;99.90;;;;;;5112981;27;20058;-65
2022/04/13 06:26:54;;;;;;;27.65;19.33;;;12.10;99.90;;;;;;5138860;27;20035;-65
2022/04/13 06:29:19;;;;;;;27.42;19.17;;;12.00;99.90;;;;;;5097424;27;20095;-65
2022/04/13 06:31:45;;;;;;;25.75;17.85;;;12.10;99.90;;;;;;5127928;27;20129;-66
2022/04/13 06:34:11;;;;;;;29.80;19.15;;;12.10;99.90;;;;;;5102726;27;20058;-65
2022/04/13 06:36:36;;;;;;;30.40;19.05;;;12.10;99.90;;;;;;5107490;27;20070;-65
2022/04/13 06:39:02;;;;;;;30.33;19.33;;;12.40;99.90;;;;;;5114257;27;20328;-65
2022/04/13 06:41:28;;;;;;;23.98;19.25;;;12.40;99.90;;;;;;5124219;27;20039;-65
2022/04/13 06:43:55;;;;;;;24.02;19.05;;;12.50;99.90;;;;;;5124149;27;20398;-66
2022/04/13 06:46:20;;;;;;;26.88;18.90;;;12.70;99.90;;;;;;5160609;27;20043;-65
2022/04/13 06:48:46;;;;;;;24.25;18.92;;;12.80;99.90;;;;;;5150578;27;20414;-65
2022/04/13 06:51:13;;;;;;;29.52;19.65;;;12.90;99.90;;;;;;5138678;27;20042;-65
2022/04/13 06:53:39;;;;;;;28.20;19.48;;;13.20;99.90;;;;;;5130588;27;20118;-66
2022/04/13 06:56:04;;;;;;;27.35;20.33;;;13.20;99.90;;;;;;5139226;27;20054;-65
2022/04/13 06:58:30;;;;;;;29.00;20.23;;;13.20;99.90;;;;;;5151942;27;20074;-65
2022/04/13 07:00:57;;;;;;;26.27;19.63;;;13.30;99.90;;;;;;5138294;27;20046;-65
2022/04/13 07:03:24;;;;;;;26.25;18.92;;;13.30;99.90;;;;;;5132598;27;20058;-65
2022/04/13 07:05:50;;;;;;;29.92;17.95;;;13.50;99.90;;;;;;5133518;27;20110;-65
2022/04/13 07:08:15;;;;;;;26.55;19.67;;;13.60;99.90;;;;;;5122942;27;20070;-65
2022/04/13 07:10:41;;;;;;;30.77;18.73;;;13.70;99.90;;;;;;5139636;27;20435;-65
2022/04/13 07:13:07;;;;;;;31.88;20.25;;;13.70;99.90;;;;;;5116829;27;20053;-66
2022/04/13 07:15:33;;;;;;;24.48;18.33;;;13.70;99.90;;;;;;5145082;27;20071;-65
2022/04/13 07:17:59;;;;;;;28.05;18.63;;;13.60;99.90;;;;;;5138593;27;20319;-65
2022/04/13 07:20:24;;;;;;;27.50;19.02;;;13.80;99.90;;;;;;5135432;27;20053;-65
2022/04/13 07:22:52;;;;;;;30.10;19.52;;;13.70;99.90;;;;;;5140531;27;20482;-64
2022/04/13 07:25:18;;;;;;;23.85;17.35;;;13.90;99.90;;;;;;5114887;27;20062;-65
2022/04/13 07:27:45;;;;;;;25.17;18.88;;;14.00;99.90;;;;;;5139131;27;20089;-66
2022/04/13 07:30:13;;;;;;;24.55;16.92;;;14.00;99.90;;;;;;5129287;27;20047;-65
2022/04/13 07:32:39;;;;;;;24.48;17.10;;;14.10;99.90;;;;;;5139753;27;20450;-65
2022/04/13 07:35:05;;;;;;;25.45;17.90;;;14.20;99.90;;;;;;5129459;27;20047;-65
2022/04/13 07:37:31;;;;;;;21.05;15.82;;;14.30;99.90;;;;;;5141574;27;20054;-65
2022/04/13 07:39:58;;;;;;;26.77;16.50;;;14.40;99.90;;;;;;5131537;27;20092;-65
2022/04/13 07:42:26;;;;;;;25.20;15.38;;;14.50;99.90;;;;;;5139127;27;20060;-65
2022/04/13 07:44:53;;;;;;;22.70;16.40;;;14.60;99.90;;;;;;5125340;27;20094;-65
2022/04/13 07:47:21;;;;;;;19.10;13.05;;;14.70;99.90;;;;;;5117983;28;20055;-70
2022/04/13 07:49:47;;;;;;;16.17;13.25;;;14.70;99.90;;;;;;5112904;28;20051;-69
2022/04/13 07:52:14;;;;;;;22.52;14.30;;;14.80;99.90;;;;;;5114814;28;20035;-69
2022/04/13 07:54:40;;;;;;;19.45;14.00;;;14.80;99.90;;;;;;5092293;28;20055;-69
2022/04/13 07:57:06;;;;;;;22.35;14.05;;;14.80;99.90;;;;;;5113783;28;20054;-69
2022/04/13 07:59:32;;;;;;;20.27;13.38;;;14.90;99.90;;;;;;5113022;27;20051;-68
2022/04/13 08:01:58;;;;;;;18.10;14.35;;;15.00;99.90;;;;;;5114929;28;20493;-68
2022/04/13 08:04:24;;;;;;;22.00;14.93;;;15.00;99.90;;;;;;5114632;28;20098;-68
2022/04/13 08:06:50;;;;;;;24.88;15.23;;;15.10;99.90;;;;;;5109383;28;20455;-69
2022/04/13 08:09:16;;;;;;;18.10;15.20;;;15.10;99.90;;;;;;5106283;28;20540;-68
2022/04/13 08:11:41;;;;;;;22.50;14.23;;;15.00;99.90;;;;;;5092023;28;20069;-68
2022/04/13 08:14:08;;;;;;;20.08;13.75;;;14.90;99.90;;;;;;5109812;28;20058;-68
2022/04/13 08:16:33;;;;;;;19.17;13.65;;;14.90;99.90;;;;;;5112057;28;20530;-68
2022/04/13 08:18:59;;;;;;;21.73;14.90;;;14.90;99.90;;;;;;5107458;28;20054;-69
2022/04/13 08:21:25;;;;;;;22.27;14.65;;;15.00;99.90;;;;;;5118263;28;23086;-68
2022/04/13 08:23:51;;;;;;;20.30;12.75;;;15.10;99.90;;;;;;5109870;27;20118;-68
2022/04/13 08:26:17;;;;;;;18.23;13.02;;;14.90;99.90;;;;;;5127872;28;20078;-68
2022/04/13 08:28:42;;;;;;;19.17;13.02;;;14.90;99.90;;;;;;5098518;28;20058;-69
2022/04/13 08:31:09;;;;;;;21.02;13.50;;;14.90;99.90;;;;;;5098279;28;20063;-68
2022/04/13 08:33:36;;;;;;;20.33;13.68;;;14.90;99.90;;;;;;5124183;28;20125;-68
2022/04/13 08:36:02;;;;;;;19.73;13.82;;;14.80;99.90;;;;;;5114763;28;20039;-68
2022/04/13 08:38:28;;;;;;;18.27;14.25;;;14.80;99.90;;;;;;5100675;28;20089;-68
2022/04/13 08:41:00;;;;;;;17.02;11.55;;;14.80;99.90;;;;;;5108011;28;20549;-68
2022/04/13 08:43:43;;;;;;;18.10;12.90;;;14.70;99.90;;;;;;5109998;27;20392;-69
2022/04/13 08:46:25;;;;;;;19.65;12.70;;;14.80;99.90;;;;;;5133944;27;20078;-69
2022/04/13 08:48:55;;;;;;;17.55;12.50;;;14.70;99.90;;;;;;5127341;27;20080;-68
2022/04/13 08:51:24;;;;;;;19.08;13.57;;;14.70;99.90;;;;;;5156652;27;20053;-69
2022/04/13 08:54:13;;;;;;;19.10;11.88;;;14.90;99.90;;;;;;5131840;27;20087;-69
2022/04/13 08:56:42;;;;;;;22.38;14.63;;;15.10;99.90;;;;;;5136551;27;20046;-68
2022/04/13 08:59:27;;;;;;;19.63;14.02;;;15.20;99.90;;;;;;5128091;27;20051;-68
2022/04/13 09:01:53;;;;;;;22.25;15.45;;;15.40;99.90;;;;;;5153754;27;20039;-68
2022/04/13 09:04:24;;;;;;;21.20;14.23;;;15.50;99.90;;;;;;5132071;27;20122;-69
2022/04/13 09:06:50;;;;;;;17.50;13.75;;;15.70;99.90;;;;;;5142450;27;20053;-69
2022/04/13 09:09:23;;;;;;;20.02;14.52;;;15.70;99.90;;;;;;5135266;27;20043;-69
2022/04/13 09:11:50;;;;;;;19.92;14.45;;;15.60;99.90;;;;;;5132931;27;20056;-69
2022/04/13 09:14:17;;;;;;;18.08;14.00;;;15.60;99.90;;;;;;5151658;27;20047;-69
2022/04/13 09:16:43;;;;;;;20.77;13.38;;;15.50;99.90;;;;;;5160809;27;20057;-69
2022/04/13 09:19:10;;;;;;;18.60;13.02;;;15.50;99.90;;;;;;5148822;27;20043;-69
2022/04/13 09:21:36;;;;;;;21.23;12.70;;;15.60;99.90;;;;;;5140755;27;20043;-70
2022/04/13 09:24:07;;;;;;;14.38;10.40;;;15.70;99.90;;;;;;5102596;27;20240;-70
2022/04/13 09:26:33;;;;;;;15.32;8.43;;;15.70;99.90;;;;;;5143697;27;20382;-70
2022/04/13 09:29:00;;;;;;;14.82;10.57;;;15.80;99.90;;;;;;5151583;27;20034;-70
2022/04/13 09:31:26;;;;;;;12.35;8.27;;;15.80;99.90;;;;;;5142716;27;20123;-70
2022/04/13 09:33:51;;;;;;;12.40;9.07;;;15.90;99.90;;;;;;5130663;27;20463;-70
2022/04/13 09:36:17;;;;;;;15.27;9.13;;;15.80;99.90;;;;;;5138745;27;20058;-70
2022/04/13 09:38:43;;;;;;;12.07;9.20;;;15.90;99.90;;;;;;5116017;27;20042;-70
2022/04/13 09:41:11;;;;;;;15.52;9.63;;;16.00;99.90;;;;;;5141036;27;20038;-70
2022/04/13 09:43:37;;;;;;;15.70;10.68;;;16.10;99.90;;;;;;5135168;27;20063;-70
2022/04/13 09:46:03;;;;;;;14.23;10.68;;;16.20;99.90;;;;;;5109721;27;20039;-70
2022/04/13 09:48:29;;;;;;;14.48;9.25;;;16.40;99.90;;;;;;5161976;27;20042;-70
2022/04/13 09:51:00;;;;;;;15.85;10.38;;;16.50;99.90;;;;;;5131769;27;20060;-69
2022/04/13 09:53:27;;;;;;;12.63;9.98;;;16.60;99.90;;;;;;5136073;27;20474;-70
2022/04/13 09:55:54;;;;;;;11.40;9.15;;;16.70;99.90;;;;;;5129233;27;20051;-70
2022/04/13 09:58:22;;;;;;;15.93;9.63;;;16.70;99.90;;;;;;5140589;27;20124;-70
2022/04/13 10:00:50;;;;;;;13.60;8.18;;;16.70;99.90;;;;;;5129360;27;20100;-71
2022/04/13 10:03:17;;;;;;;11.48;7.00;;;16.80;99.90;;;;;;5140623;27;20109;-71
2022/04/13 10:05:49;;;;;;;13.38;7.75;;;17.00;99.90;;;;;;5133841;27;20058;-70
2022/04/13 10:08:22;;;;;;;11.20;8.50;;;17.00;99.90;;;;;;5139666;27;20076;-70
2022/04/13 10:10:49;;;;;;;11.73;7.82;;;17.00;99.90;;;;;;5129739;27;20051;-71
2022/04/13 10:13:33;;;;;;;11.52;7.63;;;17.00;99.90;;;;;;5106667;27;20058;-70
2022/04/13 10:16:05;;;;;;;13.15;8.43;;;17.10;99.90;;;;;;5139403;27;20050;-71
2022/04/13 10:18:54;;;;;;;11.85;8.57;;;17.10;99.90;;;;;;5140540;27;20141;-70
2022/04/13 10:21:43;;;;;;;;;;;17.20;99.90;;;;;;5131364;27;20266;-72
2022/04/13 10:24:25;;;;;;;12.88;8.20;;;17.30;99.90;;;;;;5130322;27;19949;-72
2022/04/13 10:27:03;;;;;;;13.30;8.10;;;17.30;99.90;;;;;;5137643;27;20498;-72
2022/04/13 10:29:31;;;;;;;10.50;7.97;;;17.30;99.90;;;;;;5127803;27;20481;-72
2022/04/13 10:32:16;;;;;;;10.13;6.63;;;17.40;99.90;;;;;;5140118;27;20042;-72
2022/04/13 10:34:45;;;;;;;8.85;5.63;;;17.50;99.90;;;;;;5111366;27;20138;-71
2022/04/13 10:37:12;;;;;;;7.45;5.30;;;17.70;99.90;;;;;;5137883;27;20046;-71
2022/04/13 10:39:39;;;;;;;8.75;5.40;;;17.70;99.90;;;;;;5129483;27;20042;-71
2022/04/13 10:42:07;;;;;;;7.90;4.38;;;17.90;99.90;;;;;;5139171;27;20430;-72
2022/04/13 10:44:36;;;;;;;5.88;4.45;;;18.20;99.90;;;;;;5098870;27;20039;-71
2022/04/13 10:47:04;;;;;;;5.10;4.60;;;18.20;99.90;;;;;;5120319;27;20051;-72
2022/04/13 10:50:03;;;;;;;8.90;4.60;;;18.10;99.90;;;;;;5107761;27;20062;-72
2022/04/13 10:52:55;;;;;;;7.53;4.72;;;18.10;99.90;;;;;;5119378;27;20042;-71
2022/04/13 10:55:22;;;;;;;6.20;4.90;;;18.00;99.90;;;;;;5120806;27;20058;-72
2022/04/13 10:58:02;;;;;;;9.00;4.38;;;17.90;99.90;;;;;;5118659;27;20039;-72
2022/04/13 11:00:32;;;;;;;7.40;4.15;;;18.10;99.90;;;;;;5103200;27;20093;-72
2022/04/13 11:03:05;;;;;;;8.50;4.80;;;18.00;99.90;;;;;;5119124;27;20113;-72
2022/04/13 11:05:32;;;;;;;6.43;3.85;;;18.20;99.90;;;;;;5111224;27;20598;-72
2022/04/13 11:08:02;;;;;;;8.90;4.22;;;18.30;99.90;;;;;;5101595;27;20035;-72
2022/04/13 11:10:31;;;;;;;5.40;3.63;;;18.50;99.90;;;;;;5089367;27;20047;-73
2022/04/13 11:12:58;;;;;;;4.80;3.40;;;18.60;99.90;;;;;;5107622;27;20138;-73
2022/04/13 11:15:43;;;;;;;9.13;3.83;;;18.60;99.90;;;;;;5108181;27;20063;-73
2022/04/13 11:18:14;;;;;;;3.33;2.80;;;18.50;99.90;;;;;;5091741;27;20039;-73
2022/04/13 11:20:58;;;;;;;4.88;3.03;;;18.50;99.90;;;;;;5089387;27;20250;-72
2022/04/13 11:23:48;;;;;;;6.55;2.90;;;18.30;99.90;;;;;;5122370;27;20381;-71
2022/04/13 11:26:14;;;;;;;;;;;18.40;99.90;;;;;;5078957;27;20047;-71
2022/04/13 11:28:40;;;;;;;7.07;3.50;;;18.10;99.90;;;;;;5101847;27;20031;-71
2022/04/13 11:31:09;;;;;;;8.00;3.30;;;18.10;99.90;;;;;;5114052;27;20049;-71
2022/04/13 11:33:49;;;;;;;5.13;3.20;;;18.00;99.90;;;;;;5116977;28;20056;-71
2022/04/13 11:36:14;;;;;;;;;;;18.10;99.90;;;;;;5074961;28;20301;-71
2022/04/13 11:38:48;;;;;;;5.50;3.78;;;18.20;99.90;;;;;;5135951;27;20018;-70
2022/04/13 11:41:14;;;;;;;5.10;3.45;;;18.30;99.90;;;;;;5107577;28;20047;-70
2022/04/13 11:43:40;;;;;;;6.43;4.05;;;18.30;99.90;;;;;;5125933;27;20106;-71
2022/04/13 11:46:06;;;;;;;8.57;5.53;;;18.30;99.90;;;;;;5093395;27;20039;-71
2022/04/13 11:48:35;;;;;;;7.13;5.15;;;18.30;99.90;;;;;;5139787;27;20054;-71
2022/04/13 11:51:24;;;;;;;9.23;5.13;;;18.40;99.90;;;;;;5127822;27;20123;-71
2022/04/13 11:54:08;;;;;;;8.70;5.40;;;18.40;99.90;;;;;;5139662;27;20403;-71
2022/04/13 11:56:47;;;;;;;7.15;4.40;;;18.40;99.90;;;;;;5144979;27;20058;-70
2022/04/13 11:59:16;;;;;;;8.80;4.90;;;18.20;99.90;;;;;;5131507;27;20049;-71
2022/04/13 12:01:53;;;;;;;14.10;4.90;;;18.20;99.90;;;;;;5141295;27;20057;-71
2022/04/13 12:04:22;;;;;;;4.68;3.25;;;18.20;99.90;;;;;;5129263;27;20055;-71
2022/04/13 12:06:50;;;;;;;6.90;3.85;;;18.10;99.90;;;;;;5137897;27;20121;-72
2022/04/13 12:09:16;;;;;;;7.20;3.40;;;18.10;99.90;;;;;;5113601;27;20582;-72
2022/04/13 12:11:49;;;;;;;6.53;3.53;;;18.10;99.90;;;;;;5094109;27;20054;-73
2022/04/13 12:14:29;;;;;;;7.65;3.95;;;18.20;99.90;;;;;;5134218;27;20070;-72
2022/04/13 12:16:59;;;;;;;6.10;3.95;;;18.30;99.90;;;;;;5138524;27;20100;-72
2022/04/13 12:19:36;;;;;;;12.32;3.50;;;18.20;99.90;;;;;;5129833;27;20290;-73
2022/04/13 12:22:16;;;;;;;7.10;3.20;;;18.50;99.90;;;;;;5150435;27;20038;-72
2022/04/13 12:25:06;;;;;;;8.93;4.55;;;18.50;99.90;;;;;;5109696;27;20068;-73
2022/04/13 12:27:32;;;;;;;7.60;4.65;;;18.60;99.90;;;;;;5104013;27;20115;-72
2022/04/13 12:30:17;;;;;;;8.35;4.82;;;18.80;99.90;;;;;;5129019;27;20058;-72
2022/04/13 12:32:47;;;;;;;9.02;5.35;;;18.80;99.90;;;;;;5138050;27;20133;-73
2022/04/13 12:35:14;;;;;;;8.52;5.18;;;18.90;99.90;;;;;;5134651;27;20050;-71
2022/04/13 12:37:53;;;;;;;8.38;5.25;;;18.70;99.90;;;;;;5140669;27;20046;-71